Time;durP1;ratioP1;P1;durP2;ratioP2;P2;SDS_P1;SDS_P2;PMS_P1;PMS_P2;Temp;Humidity;BMP_temperature;BMP_pressure;BME280_temperature;BME280_humidity;BME280_pressure;Samples;Min_cycle;Max_cycle;Signal;HPM_P1;HPM_P2
2022/08/09 00:01:48;;;;;;;5.60;3.43;;;18.30;97.50;;;;;;5027664;28;20458;-53
2022/08/09 00:04:15;;;;;;;2.70;2.30;;;18.30;96.50;;;;;;5040394;28;20834;-53
2022/08/09 00:06:42;;;;;;;3.30;3.00;;;18.30;95.50;;;;;;5029205;28;20481;-52
2022/08/09 00:09:08;;;;;;;6.40;3.10;;;18.20;96.10;;;;;;5033498;28;20524;-51
2022/08/09 00:11:35;;;;;;;2.77;2.63;;;18.30;95.20;;;;;;5032452;28;20501;-52
2022/08/09 00:14:02;;;;;;;3.20;3.00;;;18.20;94.40;;;;;;5030226;28;20486;-52
2022/08/09 00:16:28;;;;;;;11.13;3.93;;;18.30;93.50;;;;;;5031813;28;20458;-53
2022/08/09 00:18:56;;;;;;;5.20;3.70;;;18.30;93.20;;;;;;5033397;28;21046;-52
2022/08/09 00:21:23;;;;;;;3.13;2.93;;;18.30;91.10;;;;;;5032328;28;20467;-52
2022/08/09 00:23:50;;;;;;;3.13;2.90;;;18.20;94.50;;;;;;5031875;28;20466;-53
2022/08/09 00:26:16;;;;;;;3.10;2.90;;;18.20;90.80;;;;;;5029552;28;20495;-52
2022/08/09 00:28:43;;;;;;;3.50;3.30;;;18.20;92.60;;;;;;5042733;28;20466;-52
2022/08/09 00:31:10;;;;;;;3.40;3.10;;;18.20;88.10;;;;;;5033495;28;20495;-52
2022/08/09 00:33:36;;;;;;;6.40;4.23;;;18.20;90.40;;;;;;5030372;28;20506;-52
2022/08/09 00:36:05;;;;;;;5.67;3.47;;;18.20;89.50;;;;;;5031426;28;20465;-53
2022/08/09 00:38:32;;;;;;;3.03;2.73;;;18.20;88.90;;;;;;5031480;28;20505;-52
2022/08/09 00:40:58;;;;;;;4.10;3.70;;;18.20;91.40;;;;;;5027265;28;21087;-52
2022/08/09 00:43:25;;;;;;;4.07;3.67;;;18.20;91.60;;;;;;5030123;28;20459;-52
2022/08/09 00:45:52;;;;;;;3.50;3.30;;;18.10;90.90;;;;;;5029296;28;21912;-53
2022/08/09 00:48:18;;;;;;;6.43;3.23;;;18.20;90.20;;;;;;5036122;28;20457;-53
2022/08/09 00:50:45;;;;;;;4.40;3.30;;;18.20;89.30;;;;;;5034469;28;20516;-51
2022/08/09 00:53:14;;;;;;;4.23;3.20;;;18.10;89.20;;;;;;5036322;28;20482;-52
2022/08/09 00:55:41;;;;;;;3.73;3.17;;;18.10;89.70;;;;;;5036351;28;20462;-51
2022/08/09 00:58:07;;;;;;;3.33;3.13;;;18.10;85.00;;;;;;5026625;28;20536;-51
2022/08/09 01:00:35;;;;;;;5.10;3.40;;;18.10;87.10;;;;;;5031793;28;21003;-51
2022/08/09 01:03:12;;;;;;;3.43;3.23;;;18.10;86.40;;;;;;5032526;28;20477;-51
2022/08/09 01:05:46;;;;;;;5.03;2.70;;;18.10;86.20;;;;;;5030314;28;20907;-51
2022/08/09 01:08:23;;;;;;;7.10;2.90;;;18.10;85.40;;;;;;5029051;28;20566;-51
2022/08/09 01:10:59;;;;;;;3.10;2.90;;;18.00;82.40;;;;;;5036698;28;20592;-51
2022/08/09 01:13:35;;;;;;;6.50;3.10;;;18.10;83.10;;;;;;5028936;28;20564;-51
2022/08/09 01:16:05;;;;;;;3.60;3.40;;;18.00;82.60;;;;;;5032713;28;20450;-51
2022/08/09 01:18:34;;;;;;;4.03;3.27;;;18.00;84.20;;;;;;5021342;28;20490;-52
2022/08/09 01:21:16;;;;;;;6.20;3.03;;;18.00;75.00;;;;;;5026542;28;20617;-51
2022/08/09 01:23:56;;;;;;;4.83;3.77;;;18.00;78.30;;;;;;5030157;28;20462;-52
2022/08/09 01:26:47;;;;;;;3.90;3.60;;;18.00;77.30;;;;;;5038655;28;20466;-52
2022/08/09 01:29:16;;;;;;;3.30;3.10;;;18.00;76.50;;;;;;5029367;28;21018;-50
2022/08/09 01:31:44;;;;;;;3.40;3.20;;;18.00;78.30;;;;;;5033229;28;20486;-52
2022/08/09 01:34:16;;;;;;;4.03;3.23;;;18.00;76.70;;;;;;5029846;28;20514;-52
2022/08/09 01:36:44;;;;;;;4.17;3.43;;;18.00;79.80;;;;;;5038179;28;20532;-52
2022/08/09 01:39:13;;;;;;;3.33;3.00;;;18.00;77.00;;;;;;5028474;28;20479;-51
2022/08/09 01:41:42;;;;;;;3.80;3.27;;;18.00;74.80;;;;;;5043391;28;20482;-51
2022/08/09 01:44:11;;;;;;;3.63;3.33;;;17.90;76.30;;;;;;5022717;28;20486;-52
2022/08/09 01:46:41;;;;;;;4.47;3.33;;;18.00;72.40;;;;;;5022115;28;20510;-52
2022/08/09 01:49:11;;;;;;;3.40;3.20;;;17.90;72.70;;;;;;5027215;28;20486;-52
2022/08/09 01:51:41;;;;;;;4.80;3.40;;;17.90;74.20;;;;;;5028029;28;20508;-52
2022/08/09 01:54:09;;;;;;;3.33;3.13;;;17.90;74.40;;;;;;5030521;28;20572;-52
2022/08/09 01:56:39;;;;;;;4.93;3.20;;;17.90;71.40;;;;;;5029680;28;20525;-52
2022/08/09 01:59:11;;;;;;;17.20;2.97;;;17.90;73.10;;;;;;5028253;28;21050;-52
2022/08/09 02:01:40;;;;;;;4.90;3.40;;;17.90;72.10;;;;;;5027907;28;20462;-52
2022/08/09 02:04:08;;;;;;;4.10;3.43;;;17.90;72.10;;;;;;5034903;28;20497;-51
2022/08/09 02:09:23;;;;;;;3.27;3.07;;;17.80;70.30;;;;;;5034521;28;21116;-53
2022/08/09 02:11:50;;;;;;;3.03;2.83;;;17.80;65.00;;;;;;5033282;28;20470;-53
2022/08/09 02:14:21;;;;;;;3.37;3.07;;;17.70;64.20;;;;;;5035487;28;20579;-51
2022/08/09 02:16:49;;;;;;;3.77;3.47;;;17.80;62.60;;;;;;5031095;28;20486;-51
2022/08/09 02:19:16;;;;;;;5.23;2.70;;;17.70;65.10;;;;;;5042355;28;20504;-53
2022/08/09 02:21:47;;;;;;;5.80;3.23;;;17.70;64.30;;;;;;5029153;28;20463;-54
2022/08/09 02:24:18;;;;;;;3.33;3.10;;;17.70;65.90;;;;;;5028310;28;20553;-53
2022/08/09 02:26:47;;;;;;;3.20;3.00;;;17.70;64.30;;;;;;5033910;28;20483;-52
2022/08/09 02:29:20;;;;;;;3.47;3.27;;;17.70;63.70;;;;;;5025934;28;20565;-51
2022/08/09 02:31:48;;;;;;;3.87;3.40;;;17.70;60.60;;;;;;5027370;28;20454;-53
2022/08/09 02:34:17;;;;;;;4.30;3.60;;;17.70;60.20;;;;;;5034741;28;20508;-52
2022/08/09 02:36:48;;;;;;;3.83;3.43;;;17.60;64.80;;;;;;5039610;28;20952;-53
2022/08/09 02:39:19;;;;;;;5.37;3.47;;;17.60;64.00;;;;;;5036396;28;20533;-51
2022/08/09 02:41:50;;;;;;;7.47;3.17;;;17.60;59.80;;;;;;5029565;28;20548;-52
2022/08/09 02:44:21;;;;;;;7.70;3.73;;;17.60;63.10;;;;;;5030818;28;20521;-52
2022/08/09 02:46:51;;;;;;;10.47;3.23;;;17.60;60.60;;;;;;5038564;28;20541;-52
2022/08/09 02:49:18;;;;;;;4.70;3.57;;;17.60;60.90;;;;;;5044171;28;20555;-52
2022/08/09 02:51:49;;;;;;;3.77;3.47;;;17.60;60.60;;;;;;5032690;28;20482;-52
2022/08/09 02:54:17;;;;;;;5.13;4.37;;;17.50;62.30;;;;;;5032541;28;20470;-52
2022/08/09 02:56:48;;;;;;;5.47;3.97;;;17.50;57.70;;;;;;5041795;28;20633;-52
2022/08/09 02:59:18;;;;;;;3.70;3.13;;;17.50;56.60;;;;;;5030863;28;20516;-53
2022/08/09 03:01:46;;;;;;;5.00;3.70;;;17.50;55.40;;;;;;5039651;28;20466;-52
2022/08/09 03:04:14;;;;;;;3.50;3.03;;;17.50;54.00;;;;;;5031823;28;20972;-53
2022/08/09 03:06:43;;;;;;;9.07;3.90;;;17.50;51.50;;;;;;5039631;28;20466;-52
2022/08/09 03:09:11;;;;;;;3.93;3.63;;;17.50;52.20;;;;;;5036382;28;20472;-52
2022/08/09 03:11:40;;;;;;;5.20;3.83;;;17.50;53.20;;;;;;5042479;28;20484;-53
2022/08/09 03:14:07;;;;;;;3.80;3.43;;;17.50;50.80;;;;;;5033372;28;20555;-52
2022/08/09 03:16:37;;;;;;;3.30;3.10;;;17.40;52.50;;;;;;5041066;28;20501;-53
2022/08/09 03:19:04;;;;;;;4.90;4.50;;;17.40;51.30;;;;;;5043601;28;20464;-51
2022/08/09 03:21:31;;;;;;;4.10;3.80;;;17.40;50.30;;;;;;5041649;28;20876;-52
2022/08/09 03:23:58;;;;;;;3.90;3.57;;;17.40;51.00;;;;;;5032402;28;20498;-52
2022/08/09 03:26:25;;;;;;;3.30;3.10;;;17.40;47.30;;;;;;5035594;28;21135;-52
2022/08/09 03:28:54;;;;;;;4.00;3.63;;;17.40;43.80;;;;;;5031137;28;20494;-52
2022/08/09 03:31:21;;;;;;;6.43;4.47;;;17.40;46.80;;;;;;5027864;28;20471;-53
2022/08/09 03:33:49;;;;;;;3.83;3.53;;;17.40;45.60;;;;;;5034296;28;20510;-52
2022/08/09 03:36:16;;;;;;;4.20;3.47;;;17.40;45.40;;;;;;5038323;28;20516;-52
2022/08/09 03:38:43;;;;;;;4.20;3.80;;;17.40;45.30;;;;;;5041363;28;20497;-52
2022/08/09 03:41:12;;;;;;;4.53;3.63;;;17.40;41.80;;;;;;5029744;28;20470;-53
2022/08/09 03:43:38;;;;;;;7.10;4.37;;;17.40;42.60;;;;;;5031911;28;20466;-54
2022/08/09 03:46:05;;;;;;;5.73;4.13;;;17.40;42.20;;;;;;5039968;28;20497;-52
2022/08/09 03:48:33;;;;;;;3.47;3.27;;;17.40;44.40;;;;;;5034008;28;20541;-53
2022/08/09 03:51:05;;;;;;;3.87;3.57;;;17.40;43.90;;;;;;5043643;28;20540;-52
2022/08/09 03:53:34;;;;;;;3.83;3.40;;;17.40;45.30;;;;;;5030357;28;20473;-51
2022/08/09 03:56:01;;;;;;;3.70;3.40;;;17.40;45.40;;;;;;5030346;28;21037;-51
2022/08/09 03:58:27;;;;;;;4.50;3.60;;;17.50;45.20;;;;;;5034041;28;20490;-50
2022/08/09 04:00:55;;;;;;;4.27;3.97;;;17.50;42.70;;;;;;5032663;28;20508;-51
2022/08/09 04:03:22;;;;;;;4.40;3.80;;;17.50;43.80;;;;;;5035935;28;20465;-52
2022/08/09 04:05:49;;;;;;;3.70;3.37;;;17.50;46.00;;;;;;5035656;28;20501;-52
2022/08/09 04:08:16;;;;;;;3.93;3.67;;;17.50;43.80;;;;;;5028482;28;20491;-52
2022/08/09 04:10:43;;;;;;;5.73;4.37;;;17.50;46.00;;;;;;5020679;28;20514;-52
2022/08/09 04:13:10;;;;;;;3.70;3.40;;;17.50;44.10;;;;;;5030699;28;20485;-53
2022/08/09 04:15:38;;;;;;;10.43;4.10;;;17.50;41.60;;;;;;5026453;28;20483;-51
2022/08/09 04:18:06;;;;;;;6.10;3.77;;;17.50;43.60;;;;;;5029838;28;20491;-53
2022/08/09 04:20:33;;;;;;;4.80;4.40;;;17.50;43.20;;;;;;5040765;28;20482;-52
2022/08/09 04:22:59;;;;;;;3.97;3.67;;;17.50;43.20;;;;;;5039139;28;20499;-53
2022/08/09 04:25:27;;;;;;;7.53;4.20;;;17.50;40.70;;;;;;5030125;28;20548;-53
2022/08/09 04:27:55;;;;;;;4.50;4.00;;;17.50;40.70;;;;;;5043218;28;20509;-52
2022/08/09 04:30:22;;;;;;;5.47;4.27;;;17.50;40.70;;;;;;5040328;28;20542;-51
2022/08/09 04:32:50;;;;;;;4.50;3.70;;;17.50;40.60;;;;;;5034278;28;21013;-53
2022/08/09 04:35:17;;;;;;;4.40;4.10;;;17.50;40.60;;;;;;5039030;28;20514;-51
2022/08/09 04:37:43;;;;;;;5.37;3.60;;;17.60;40.60;;;;;;5031180;28;20509;-52
2022/08/09 04:40:11;;;;;;;4.33;3.60;;;17.50;40.80;;;;;;5030181;28;20479;-52
2022/08/09 04:42:39;;;;;;;4.63;4.27;;;17.60;40.50;;;;;;5033323;28;20462;-53
2022/08/09 04:45:07;;;;;;;4.73;4.30;;;17.60;37.80;;;;;;5040131;28;20486;-52
2022/08/09 04:47:34;;;;;;;4.43;4.03;;;17.60;39.20;;;;;;5025840;28;20539;-52
2022/08/09 04:50:00;;;;;;;5.70;4.20;;;17.60;40.30;;;;;;5034219;28;20532;-52
2022/08/09 04:52:28;;;;;;;14.33;3.83;;;17.70;40.60;;;;;;5040090;28;20478;-52
2022/08/09 04:54:56;;;;;;;4.50;4.10;;;17.60;38.20;;;;;;5034333;28;20479;-51
2022/08/09 04:57:22;;;;;;;5.87;4.13;;;17.70;37.60;;;;;;5029625;28;20466;-53
2022/08/09 04:59:50;;;;;;;5.00;4.50;;;17.60;32.90;;;;;;5030883;28;20478;-51
2022/08/09 05:02:17;;;;;;;5.07;4.57;;;17.70;37.90;;;;;;5026906;28;20487;-51
2022/08/09 05:04:44;;;;;;;5.33;3.70;;;17.70;36.30;;;;;;5031585;28;20483;-52
2022/08/09 05:07:10;;;;;;;4.10;3.73;;;17.70;35.60;;;;;;5028672;28;20837;-52
2022/08/09 05:09:37;;;;;;;4.77;4.37;;;17.70;37.80;;;;;;5030779;28;20552;-52
2022/08/09 05:12:04;;;;;;;6.13;4.60;;;17.70;38.30;;;;;;5031827;28;20563;-52
2022/08/09 05:14:30;;;;;;;5.13;4.57;;;17.70;38.40;;;;;;5034904;28;20908;-52
2022/08/09 05:16:58;;;;;;;6.57;5.10;;;17.70;35.90;;;;;;5031224;28;20459;-52
2022/08/09 05:19:26;;;;;;;4.77;3.87;;;17.70;41.80;;;;;;5031426;28;20478;-52
2022/08/09 05:21:53;;;;;;;6.37;4.43;;;17.70;40.60;;;;;;5027928;28;20529;-52
2022/08/09 05:24:19;;;;;;;4.73;4.33;;;17.80;40.60;;;;;;5034810;28;20798;-52
2022/08/09 05:26:46;;;;;;;3.40;3.20;;;17.80;40.60;;;;;;5029796;28;20525;-52
2022/08/09 05:29:18;;;;;;;4.70;4.30;;;17.80;42.60;;;;;;5046256;28;20481;-52
2022/08/09 05:31:45;;;;;;;6.57;3.73;;;17.90;45.60;;;;;;5034532;28;20988;-54
2022/08/09 05:34:14;;;;;;;5.00;4.43;;;17.90;42.10;;;;;;5036119;28;20459;-51
2022/08/09 05:36:41;;;;;;;4.70;4.30;;;17.90;43.60;;;;;;5028514;28;20520;-52
2022/08/09 05:39:08;;;;;;;5.47;5.07;;;18.00;45.70;;;;;;5030206;28;20514;-52
2022/08/09 05:41:34;;;;;;;5.10;4.60;;;18.00;50.80;;;;;;5037600;28;20490;-52
2022/08/09 05:44:01;;;;;;;6.37;4.00;;;18.00;52.00;;;;;;5027834;28;20494;-53
2022/08/09 05:46:27;;;;;;;5.87;4.07;;;18.00;48.90;;;;;;5029632;28;21026;-51
2022/08/09 05:48:54;;;;;;;5.90;4.33;;;18.10;51.10;;;;;;5034003;28;20466;-54
2022/08/09 05:51:22;;;;;;;6.63;4.67;;;18.10;54.40;;;;;;5028329;28;20473;-53
2022/08/09 05:53:50;;;;;;;13.83;4.60;;;18.10;57.70;;;;;;5033313;28;20545;-52
2022/08/09 05:56:16;;;;;;;30.70;5.03;;;18.20;58.00;;;;;;5027602;28;20537;-53
2022/08/09 05:58:43;;;;;;;10.13;4.73;;;18.20;58.50;;;;;;5027459;28;20544;-52
2022/08/09 06:01:10;;;;;;;5.47;4.23;;;18.30;60.90;;;;;;5031770;28;20527;-51
2022/08/09 06:03:36;;;;;;;8.67;4.90;;;18.30;63.90;;;;;;5024662;28;20467;-52
2022/08/09 06:06:03;;;;;;;5.70;4.33;;;18.30;64.40;;;;;;5025999;28;20489;-51
2022/08/09 06:08:31;;;;;;;4.37;3.97;;;18.40;62.70;;;;;;5028501;28;20509;-51
2022/08/09 06:10:58;;;;;;;5.43;4.50;;;18.40;68.00;;;;;;5027007;28;20876;-51
2022/08/09 06:13:26;;;;;;;6.63;4.27;;;18.40;67.70;;;;;;5029985;28;20494;-51
2022/08/09 06:15:52;;;;;;;4.40;4.00;;;18.50;67.70;;;;;;5033287;28;20494;-51
2022/08/09 06:18:20;;;;;;;5.40;3.97;;;18.50;69.00;;;;;;5033638;28;21042;-53
2022/08/09 06:20:46;;;;;;;7.53;3.87;;;18.60;70.90;;;;;;5027702;28;20478;-53
2022/08/09 06:23:13;;;;;;;4.90;3.60;;;18.60;78.50;;;;;;5038010;28;20493;-52
2022/08/09 06:25:41;;;;;;;5.63;4.37;;;18.60;79.80;;;;;;5032044;28;20490;-53
2022/08/09 06:28:07;;;;;;;4.10;3.90;;;18.70;82.20;;;;;;5039907;28;20468;-52
2022/08/09 06:30:35;;;;;;;4.60;3.73;;;18.70;90.70;;;;;;5041062;28;20974;-53
2022/08/09 06:33:02;;;;;;;4.47;4.17;;;18.80;95.10;;;;;;5036612;28;20523;-52
2022/08/09 06:35:29;;;;;;;4.90;4.00;;;18.80;97.00;;;;;;5035526;28;20544;-52
2022/08/09 06:37:56;;;;;;;3.80;3.40;;;18.90;96.60;;;;;;5031041;28;21013;-51
2022/08/09 06:40:23;;;;;;;3.97;3.67;;;18.90;99.90;;;;;;5027816;28;20576;-52
2022/08/09 06:42:51;;;;;;;4.20;3.90;;;18.90;99.90;;;;;;5030350;28;20463;-53
2022/08/09 06:45:18;;;;;;;5.60;4.07;;;19.00;99.90;;;;;;5033509;28;20521;-53
2022/08/09 06:47:44;;;;;;;4.13;3.63;;;19.00;99.90;;;;;;5034126;28;20540;-53
2022/08/09 06:50:11;;;;;;;4.90;3.80;;;19.10;99.90;;;;;;5038615;28;20539;-52
2022/08/09 06:52:38;;;;;;;4.47;3.37;;;19.10;99.90;;;;;;5032006;28;20956;-52
2022/08/09 06:55:06;;;;;;;11.13;3.70;;;19.10;99.90;;;;;;5036931;28;20482;-53
2022/08/09 06:57:33;;;;;;;5.07;3.40;;;19.20;99.90;;;;;;5031163;28;20494;-52
2022/08/09 07:00:00;;;;;;;5.70;3.80;;;19.30;99.90;;;;;;5034401;28;20543;-53
2022/08/09 07:02:27;;;;;;;4.73;3.53;;;19.40;99.90;;;;;;5032245;28;20502;-52
2022/08/09 07:04:54;;;;;;;3.40;3.20;;;19.40;99.90;;;;;;5031342;28;20497;-53
2022/08/09 07:07:20;;;;;;;3.17;2.60;;;19.50;99.90;;;;;;5029650;28;20528;-52
2022/08/09 07:09:47;;;;;;;3.83;3.43;;;19.60;99.90;;;;;;5039994;28;20482;-51
2022/08/09 07:12:14;;;;;;;3.53;3.00;;;19.70;99.90;;;;;;5030272;28;20458;-52
2022/08/09 07:14:40;;;;;;;3.47;3.13;;;19.80;99.90;;;;;;5035145;28;20507;-51
2022/08/09 07:17:08;;;;;;;3.20;3.00;;;19.80;99.90;;;;;;5039397;28;20463;-52
2022/08/09 07:19:35;;;;;;;2.87;2.67;;;19.90;99.90;;;;;;5040772;28;20539;-53
2022/08/09 07:22:01;;;;;;;3.90;3.10;;;20.00;99.90;;;;;;5025836;28;20452;-52
2022/08/09 07:24:30;;;;;;;5.30;3.20;;;20.10;99.90;;;;;;5034688;28;20455;-51
2022/08/09 07:26:58;;;;;;;3.27;2.97;;;20.20;99.90;;;;;;5032344;28;20458;-51
2022/08/09 07:29:25;;;;;;;2.33;2.13;;;20.40;99.90;;;;;;5030502;28;20525;-52
2022/08/09 07:31:51;;;;;;;2.70;2.30;;;20.40;99.90;;;;;;5023104;28;20486;-51
2022/08/09 07:34:19;;;;;;;3.37;2.70;;;20.60;99.90;;;;;;5033708;28;20490;-52
2022/08/09 07:36:47;;;;;;;6.40;2.70;;;20.70;99.90;;;;;;5023743;28;20613;-52
2022/08/09 07:39:13;;;;;;;4.40;2.20;;;20.80;99.90;;;;;;5028785;28;20536;-52
2022/08/09 07:41:40;;;;;;;4.40;2.00;;;20.80;99.90;;;;;;5030043;28;20509;-52
2022/08/09 07:44:06;;;;;;;8.50;3.40;;;20.90;99.90;;;;;;5033687;28;20482;-52
2022/08/09 07:46:33;;;;;;;5.00;2.43;;;21.00;99.90;;;;;;5038713;28;20486;-52
2022/08/09 07:49:00;;;;;;;3.63;1.70;;;21.10;99.90;;;;;;5037203;28;20474;-51
2022/08/09 07:51:28;;;;;;;3.20;2.43;;;21.20;99.90;;;;;;5034744;28;20463;-52
2022/08/09 07:53:55;;;;;;;4.60;2.50;;;21.20;99.90;;;;;;5030587;28;20462;-52
2022/08/09 07:56:21;;;;;;;3.03;1.87;;;21.20;99.90;;;;;;5029184;28;20483;-52
2022/08/09 07:58:48;;;;;;;5.07;2.20;;;21.20;99.90;;;;;;5033237;28;20467;-51
2022/08/09 08:01:15;;;;;;;3.47;2.27;;;21.20;99.90;;;;;;5039389;28;20475;-52
2022/08/09 08:03:41;;;;;;;2.73;2.17;;;21.40;99.90;;;;;;5027447;28;20458;-51
2022/08/09 08:06:08;;;;;;;2.27;2.00;;;21.50;99.90;;;;;;5030943;28;20455;-51
2022/08/09 08:08:36;;;;;;;5.80;2.47;;;21.60;99.90;;;;;;5029934;28;20536;-51
2022/08/09 08:11:03;;;;;;;10.43;2.13;;;21.70;99.90;;;;;;5022754;28;21031;-53
2022/08/09 08:13:30;;;;;;;2.17;2.00;;;21.80;99.90;;;;;;5031301;28;20499;-51
2022/08/09 08:15:56;;;;;;;1.80;1.70;;;21.90;99.90;;;;;;5033169;28;20585;-51
2022/08/09 08:18:23;;;;;;;2.33;2.17;;;22.00;99.90;;;;;;5032360;28;20525;-53
2022/08/09 08:20:50;;;;;;;2.10;2.00;;;22.10;99.90;;;;;;5035189;28;20540;-52
2022/08/09 08:23:17;;;;;;;2.03;1.80;;;22.20;99.90;;;;;;5037916;28;20461;-52
2022/08/09 08:25:46;;;;;;;3.53;1.97;;;22.30;99.90;;;;;;5033305;28;20554;-51
2022/08/09 08:28:13;;;;;;;2.53;2.37;;;22.30;99.90;;;;;;5034220;28;20467;-51
2022/08/09 08:30:40;;;;;;;2.00;1.90;;;22.40;99.90;;;;;;5030822;28;20517;-52
2022/08/09 08:33:07;;;;;;;2.47;2.23;;;22.50;99.90;;;;;;5037963;28;20544;-52
2022/08/09 08:35:34;;;;;;;5.70;2.07;;;22.60;99.90;;;;;;5035474;28;20521;-51
2022/08/09 08:38:01;;;;;;;2.20;1.97;;;22.70;99.90;;;;;;5026839;28;20516;-52
2022/08/09 08:40:27;;;;;;;3.93;1.90;;;22.80;99.90;;;;;;5030031;28;20604;-52
2022/08/09 08:42:56;;;;;;;2.30;2.17;;;22.80;99.90;;;;;;5031429;28;20477;-51
2022/08/09 08:45:29;;;;;;;2.00;1.77;;;22.80;99.90;;;;;;5040398;28;20524;-52
2022/08/09 08:47:55;;;;;;;1.90;1.80;;;22.90;99.90;;;;;;5049512;28;20520;-52
2022/08/09 08:50:22;;;;;;;3.80;2.00;;;23.00;99.90;;;;;;5040168;28;20486;-51
2022/08/09 08:52:51;;;;;;;3.23;2.93;;;23.00;99.90;;;;;;5040251;28;20463;-52
2022/08/09 08:55:18;;;;;;;2.67;2.47;;;23.20;99.90;;;;;;5035035;28;20538;-53
2022/08/09 08:57:44;;;;;;;3.03;2.10;;;23.30;99.90;;;;;;5031074;28;21028;-53
2022/08/09 09:00:13;;;;;;;1.93;1.80;;;23.40;99.90;;;;;;5030499;28;20849;-53
2022/08/09 09:02:41;;;;;;;2.03;1.93;;;23.50;99.90;;;;;;5016343;28;20447;-53
2022/08/09 09:05:12;;;;;;;4.23;1.97;;;23.60;99.90;;;;;;5031149;28;20453;-52
2022/08/09 09:07:39;;;;;;;2.27;2.07;;;23.70;99.90;;;;;;5028892;28;20447;-51
2022/08/09 09:10:08;;;;;;;5.87;2.63;;;24.20;99.90;;;;;;5029294;28;20482;-51
2022/08/09 09:12:36;;;;;;;4.97;2.80;;;24.70;99.90;;;;;;5028432;28;20459;-52
2022/08/09 09:15:03;;;;;;;2.57;2.37;;;25.00;99.90;;;;;;5021831;28;20478;-51
2022/08/09 09:17:31;;;;;;;3.13;2.30;;;25.10;99.90;;;;;;5025345;28;20519;-52
2022/08/09 09:19:58;;;;;;;2.63;2.53;;;25.00;99.90;;;;;;5038566;28;20556;-52
2022/08/09 09:22:25;;;;;;;4.40;2.30;;;25.10;99.90;;;;;;5037795;28;20462;-52
2022/08/09 09:24:54;;;;;;;3.57;2.23;;;25.20;99.90;;;;;;5043841;28;20940;-52
2022/08/09 09:27:24;;;;;;;3.77;2.67;;;25.10;99.90;;;;;;5028391;28;20498;-52
2022/08/09 09:29:51;;;;;;;3.43;2.00;;;25.20;99.90;;;;;;5038419;28;21571;-53
2022/08/09 09:32:20;;;;;;;3.60;2.37;;;25.10;99.90;;;;;;5034187;28;20486;-52
2022/08/09 09:35:04;;;;;;;2.27;2.13;;;25.00;99.90;;;;;;5030328;28;20463;-52
2022/08/09 09:37:31;;;;;;;4.00;2.10;;;25.00;99.90;;;;;;5032344;28;20513;-52
2022/08/09 09:39:58;;;;;;;2.90;2.40;;;25.10;99.90;;;;;;5030138;28;20494;-52
2022/08/09 09:42:28;;;;;;;5.10;2.60;;;25.20;99.90;;;;;;5027196;28;20518;-52
2022/08/09 09:44:57;;;;;;;12.10;2.50;;;25.40;99.90;;;;;;5033552;28;20980;-52
2022/08/09 09:47:25;;;;;;;7.73;2.83;;;25.60;99.90;;;;;;5033046;28;20491;-52
2022/08/09 09:49:53;;;;;;;14.13;3.13;;;25.70;99.90;;;;;;5026277;28;20494;-52
2022/08/09 09:52:22;;;;;;;8.37;2.40;;;25.70;99.90;;;;;;5036354;28;20477;-53
2022/08/09 09:54:48;;;;;;;2.50;2.30;;;25.70;99.90;;;;;;5040010;28;20500;-52
2022/08/09 09:57:18;;;;;;;2.50;2.30;;;25.60;99.90;;;;;;5029723;28;20482;-52
2022/08/09 09:59:46;;;;;;;5.80;4.17;;;25.50;99.90;;;;;;5032995;28;20532;-52
2022/08/09 10:02:14;;;;;;;4.90;2.87;;;25.50;99.90;;;;;;5031637;28;20955;-53
2022/08/09 10:04:42;;;;;;;3.60;2.50;;;25.50;99.90;;;;;;5040238;28;20874;-51
2022/08/09 10:07:23;;;;;;;9.93;2.73;;;25.20;99.90;;;;;;5037891;28;20479;-52
2022/08/09 10:09:54;;;;;;;4.10;2.60;;;24.90;99.90;;;;;;5029693;28;20486;-51
2022/08/09 10:12:26;;;;;;;3.43;3.00;;;24.70;99.90;;;;;;5033232;28;20458;-51
2022/08/09 10:15:03;;;;;;;2.67;2.23;;;24.50;99.90;;;;;;5032062;28;20521;-52
2022/08/09 10:17:33;;;;;;;2.90;2.70;;;24.50;99.90;;;;;;5035028;28;20539;-53
2022/08/09 10:20:00;;;;;;;3.73;2.60;;;24.60;99.90;;;;;;5039822;28;20825;-51
2022/08/09 10:22:33;;;;;;;6.40;2.10;;;24.90;99.90;;;;;;5037197;28;20511;-53
2022/08/09 10:25:00;;;;;;;3.10;2.57;;;25.20;99.90;;;;;;5039736;28;20497;-52
2022/08/09 10:27:27;;;;;;;4.20;2.83;;;25.30;99.90;;;;;;5025392;28;20452;-52
2022/08/09 10:29:54;;;;;;;3.10;2.83;;;25.70;99.90;;;;;;5032797;28;20496;-52
2022/08/09 10:32:21;;;;;;;2.83;2.50;;;26.40;99.90;;;;;;5037360;28;20462;-51
2022/08/09 10:34:48;;;;;;;3.43;2.33;;;26.50;99.90;;;;;;5039598;28;20494;-52
2022/08/09 10:37:15;;;;;;;2.20;2.10;;;26.40;99.90;;;;;;5036481;28;21027;-50
2022/08/09 10:39:43;;;;;;;3.07;2.13;;;26.20;99.90;;;;;;5038380;28;20485;-53
2022/08/09 10:42:10;;;;;;;2.47;2.10;;;26.00;99.90;;;;;;5034285;28;20458;-52
2022/08/09 10:44:38;;;;;;;2.20;2.00;;;25.90;99.90;;;;;;5028766;28;20486;-51
2022/08/09 10:47:31;;;;;;;5.63;2.37;;;25.70;99.90;;;;;;5036799;28;20490;-51
2022/08/09 10:50:06;;;;;;;3.00;2.30;;;25.50;99.90;;;;;;5032677;28;20513;-53
2022/08/09 10:53:05;;;;;;;1.87;1.77;;;25.40;99.90;;;;;;5030648;28;20470;-51
2022/08/09 10:55:34;;;;;;;2.00;1.90;;;25.40;99.90;;;;;;5030017;28;20465;-52
2022/08/09 10:58:02;;;;;;;9.10;1.90;;;25.30;99.90;;;;;;5031474;28;20532;-51
2022/08/09 11:00:41;;;;;;;2.80;2.70;;;25.10;99.90;;;;;;5038426;28;20479;-52
2022/08/09 11:03:21;;;;;;;1.90;1.80;;;25.20;99.90;;;;;;5033337;28;20454;-52
2022/08/09 11:06:17;;;;;;;1.33;1.33;;;25.50;99.90;;;;;;5039638;28;20558;-53
2022/08/09 11:08:45;;;;;;;5.23;1.57;;;25.70;99.90;;;;;;5032090;28;20458;-51
2022/08/09 11:11:13;;;;;;;3.90;2.00;;;26.00;99.90;;;;;;5038161;28;20477;-52
2022/08/09 11:13:40;;;;;;;2.20;2.00;;;26.10;99.90;;;;;;5028195;28;20485;-52
2022/08/09 11:16:35;;;;;;;1.70;1.60;;;26.20;99.90;;;;;;5042893;28;20466;-52
2022/08/09 11:19:02;;;;;;;1.80;1.80;;;26.40;99.90;;;;;;5030399;28;20486;-52
2022/08/09 11:21:51;;;;;;;3.10;1.77;;;26.40;99.90;;;;;;5034231;28;20541;-52
2022/08/09 11:24:18;;;;;;;2.07;1.97;;;26.60;99.90;;;;;;5034463;28;20471;-51
2022/08/09 11:26:47;;;;;;;1.80;1.70;;;26.50;99.90;;;;;;5041862;28;20773;-51
2022/08/09 11:29:47;;;;;;;2.23;2.00;;;26.50;99.90;;;;;;5032873;28;21023;-51
2022/08/09 11:32:41;;;;;;;4.50;2.00;;;26.60;99.90;;;;;;5035380;28;20459;-51
2022/08/09 11:35:13;;;;;;;1.93;1.83;;;26.70;99.90;;;;;;5028820;28;20485;-52
2022/08/09 11:37:40;;;;;;;3.10;1.70;;;26.60;99.90;;;;;;5029995;28;20482;-52
2022/08/09 11:40:10;;;;;;;5.27;1.97;;;26.70;99.90;;;;;;5035713;28;20483;-52
2022/08/09 11:42:45;;;;;;;3.40;1.77;;;26.60;99.90;;;;;;5037632;28;20501;-50
2022/08/09 11:45:24;;;;;;;1.80;1.70;;;26.40;99.90;;;;;;5033111;28;20458;-52
2022/08/09 11:47:53;;;;;;;2.17;1.93;;;26.20;99.90;;;;;;5038509;28;20520;-51
2022/08/09 11:50:20;;;;;;;8.40;2.03;;;26.10;99.90;;;;;;5023008;28;20498;-52
2022/08/09 11:53:18;;;;;;;3.63;1.30;;;25.90;99.90;;;;;;5038114;28;20496;-52
2022/08/09 11:55:45;;;;;;;2.10;1.90;;;25.70;99.90;;;;;;5039970;28;20442;-52
2022/08/09 11:58:41;;;;;;;8.63;1.67;;;25.50;99.90;;;;;;5032933;28;20517;-51
2022/08/09 12:01:08;;;;;;;2.23;1.73;;;25.30;99.90;;;;;;5026840;28;21006;-52
2022/08/09 12:03:35;;;;;;;2.60;1.90;;;25.20;99.90;;;;;;5036360;28;20524;-52
2022/08/09 12:06:10;;;;;;;1.60;1.50;;;25.20;99.90;;;;;;5026433;28;20493;-52
2022/08/09 12:08:43;;;;;;;2.10;2.00;;;25.00;99.90;;;;;;5031495;28;20501;-52
2022/08/09 12:11:13;;;;;;;2.73;2.00;;;25.10;99.90;;;;;;5044581;28;20493;-52
2022/08/09 12:13:44;;;;;;;2.70;1.97;;;25.40;99.90;;;;;;5032181;28;20458;-52
2022/08/09 12:16:13;;;;;;;4.43;1.67;;;25.70;99.90;;;;;;5029919;28;20957;-52
2022/08/09 12:18:43;;;;;;;2.40;2.30;;;26.00;99.90;;;;;;5040144;28;20470;-52
2022/08/09 12:21:11;;;;;;;2.37;1.70;;;26.30;99.90;;;;;;5039206;28;20486;-52
2022/08/09 12:23:42;;;;;;;1.50;1.50;;;26.50;99.90;;;;;;5032533;28;20467;-52
2022/08/09 12:26:10;;;;;;;9.10;2.03;;;26.70;99.90;;;;;;5033578;28;20469;-52
2022/08/09 12:28:38;;;;;;;2.17;1.97;;;26.70;99.90;;;;;;5037101;28;20497;-51
2022/08/09 12:31:17;;;;;;;8.33;1.73;;;26.80;99.90;;;;;;5030449;28;20514;-52
2022/08/09 12:33:44;;;;;;;6.70;2.33;;;26.60;99.90;;;;;;5032201;28;20512;-51
2022/08/09 12:36:11;;;;;;;1.70;1.60;;;26.40;99.90;;;;;;5037314;28;21037;-52
2022/08/09 12:38:37;;;;;;;2.50;2.00;;;26.50;99.90;;;;;;5040129;28;20513;-52
2022/08/09 12:41:04;;;;;;;3.20;2.00;;;26.70;99.90;;;;;;5035957;28;20559;-52
2022/08/09 12:43:31;;;;;;;2.17;1.80;;;26.90;99.90;;;;;;5035758;28;21053;-52
2022/08/09 12:45:59;;;;;;;6.73;1.80;;;27.10;99.90;;;;;;5040752;28;20499;-51
2022/08/09 12:48:29;;;;;;;1.47;1.47;;;27.10;99.90;;;;;;5039479;28;20477;-51
2022/08/09 12:50:57;;;;;;;1.60;1.50;;;27.20;99.90;;;;;;5028851;28;20494;-51
2022/08/09 12:53:28;;;;;;;4.83;2.03;;;27.40;99.90;;;;;;5030800;28;20525;-52
2022/08/09 12:56:09;;;;;;;1.73;1.60;;;27.50;99.90;;;;;;5032701;28;20964;-53
2022/08/09 12:58:37;;;;;;;2.77;1.50;;;27.40;99.90;;;;;;5029566;28;20501;-51